createdAt,value
2018-04-20T00:00:22.558Z,992.86
2018-04-20T00:01:22.497Z,992.82
2018-04-20T00:02:22.441Z,992.83
2018-04-20T00:03:22.382Z,992.82
2018-04-20T00:04:22.323Z,992.81
2018-04-20T00:05:22.266Z,992.80
2018-04-20T00:06:22.213Z,992.77
2018-04-20T00:07:22.149Z,992.84
2018-04-20T00:08:22.090Z,992.77
2018-04-20T00:09:22.033Z,992.79
2018-04-20T00:10:21.975Z,992.79
2018-04-20T00:11:21.917Z,992.81
2018-04-20T00:12:21.859Z,992.81
2018-04-20T00:13:21.800Z,992.82
2018-04-20T00:14:21.741Z,992.77
2018-04-20T00:15:21.684Z,992.76
2018-04-20T00:16:21.625Z,992.78
2018-04-20T00:17:21.567Z,992.75
2018-04-20T00:18:21.509Z,992.74
2018-04-20T00:19:21.453Z,992.74
2018-04-20T00:20:21.393Z,992.69
2018-04-20T00:21:21.337Z,992.74
2018-04-20T00:22:21.284Z,992.72
2018-04-20T00:23:21.216Z,992.69
2018-04-20T00:24:21.165Z,992.71
2018-04-20T00:25:21.101Z,992.70
2018-04-20T00:26:21.043Z,992.68
2018-04-20T00:27:20.985Z,992.66
2018-04-20T00:28:20.932Z,992.64
2018-04-20T00:29:20.869Z,992.67
2018-04-20T00:30:20.810Z,992.71
2018-04-20T00:31:20.751Z,992.67
2018-04-20T00:32:20.695Z,992.68
2018-04-20T00:33:20.660Z,992.67
2018-04-20T00:34:20.577Z,992.69
2018-04-20T00:35:20.520Z,992.65
2018-04-20T00:36:20.463Z,992.69
2018-04-20T00:37:20.411Z,992.68
2018-04-20T00:38:20.343Z,992.64
2018-04-20T00:39:20.294Z,992.65
2018-04-20T00:40:20.227Z,992.66
2018-04-20T00:41:20.172Z,992.65
2018-04-20T00:42:20.109Z,992.62
2018-04-20T00:43:20.053Z,992.63
2018-04-20T00:44:20.002Z,992.63
2018-04-20T00:45:19.937Z,992.66
2018-04-20T00:46:19.882Z,992.67
2018-04-20T00:47:19.823Z,992.71
2018-04-20T00:48:19.761Z,992.69
2018-04-20T00:49:19.703Z,992.75
2018-04-20T00:50:19.647Z,992.70
2018-04-20T00:51:19.593Z,992.69
2018-04-20T00:52:19.526Z,992.67
2018-04-20T00:53:19.468Z,992.70
2018-04-20T00:54:19.414Z,992.66
2018-04-20T00:55:19.351Z,992.66
2018-04-20T00:56:19.297Z,992.65
2018-04-20T00:57:19.236Z,992.68
2018-04-20T00:58:19.176Z,992.67
2018-04-20T00:59:19.120Z,992.69
2018-04-20T01:00:19.063Z,992.66
2018-04-20T01:01:19.001Z,992.68
2018-04-20T01:02:18.942Z,992.66
2018-04-20T01:03:18.882Z,992.62
2018-04-20T01:04:18.829Z,992.66
2018-04-20T01:05:18.770Z,992.60
2018-04-20T01:06:18.707Z,992.61
2018-04-20T01:07:18.647Z,992.57
2018-04-20T01:08:18.596Z,992.61
2018-04-20T01:09:18.532Z,992.59
2018-04-20T01:10:18.476Z,992.60
2018-04-20T01:11:18.415Z,992.63
2018-04-20T01:12:18.354Z,992.65
2018-04-20T01:13:18.298Z,992.56
2018-04-20T01:14:18.236Z,992.59
2018-04-20T01:15:18.178Z,992.59
2018-04-20T01:16:18.119Z,992.63
2018-04-20T01:17:18.061Z,992.57
2018-04-20T01:18:18.001Z,992.60
2018-04-20T01:19:17.943Z,992.57
2018-04-20T01:20:17.885Z,992.58
2018-04-20T01:21:17.828Z,992.49
2018-04-20T01:22:17.769Z,992.55
2018-04-20T01:23:17.709Z,992.58
2018-04-20T01:24:17.652Z,992.54
2018-04-20T01:25:17.592Z,992.58
2018-04-20T01:26:17.532Z,992.59
2018-04-20T01:27:17.478Z,992.61
2018-04-20T01:28:17.413Z,992.61
2018-04-20T01:29:17.356Z,992.59
2018-04-20T01:30:17.295Z,992.56
2018-04-20T01:31:17.238Z,992.59
2018-04-20T01:32:17.178Z,992.54
2018-04-20T01:33:17.125Z,992.65
2018-04-20T01:34:17.061Z,992.60
2018-04-20T01:35:17.007Z,992.60
2018-04-20T01:36:16.943Z,992.60
2018-04-20T01:37:16.885Z,992.59
2018-04-20T01:38:16.825Z,992.58
2018-04-20T01:39:16.767Z,992.59
2018-04-20T01:40:16.708Z,992.59
2018-04-20T01:41:16.650Z,992.60
2018-04-20T01:42:16.598Z,992.59
2018-04-20T01:43:16.534Z,992.55
2018-04-20T01:44:16.472Z,992.59
2018-04-20T01:45:16.416Z,992.57
2018-04-20T01:46:16.357Z,992.57
2018-04-20T01:47:16.301Z,992.55
2018-04-20T01:48:16.239Z,992.53
2018-04-20T01:49:16.187Z,992.52
2018-04-20T01:50:16.123Z,992.55
2018-04-20T01:51:16.061Z,992.54
2018-04-20T01:52:16.000Z,992.51
2018-04-20T01:53:15.942Z,992.54
2018-04-20T01:54:15.882Z,992.54
2018-04-20T01:55:15.826Z,992.50
2018-04-20T01:56:15.821Z,992.54
2018-04-20T01:57:15.707Z,992.42
2018-04-20T01:58:15.646Z,992.49
2018-04-20T01:59:15.592Z,992.45
2018-04-20T02:00:15.531Z,992.46
2018-04-20T02:01:15.485Z,992.46
2018-04-20T02:02:15.410Z,992.49
2018-04-20T02:03:15.356Z,992.44
2018-04-20T02:04:15.294Z,992.43
2018-04-20T02:05:15.233Z,992.44
2018-04-20T02:06:15.174Z,992.42
2018-04-20T02:07:15.120Z,992.43
2018-04-20T02:08:15.060Z,992.43
2018-04-20T02:09:14.997Z,992.40
2018-04-20T02:10:14.942Z,992.43
2018-04-20T02:11:14.878Z,992.46
2018-04-20T02:12:14.819Z,992.42
2018-04-20T02:13:14.876Z,992.39
2018-04-20T02:14:14.702Z,992.39
2018-04-20T02:15:14.642Z,992.42
2018-04-20T02:16:14.583Z,992.39
2018-04-20T02:17:14.524Z,992.37
2018-04-20T02:18:14.462Z,992.38
2018-04-20T02:19:14.404Z,992.38
2018-04-20T02:20:14.343Z,992.39
2018-04-20T02:21:14.285Z,992.34
2018-04-20T02:22:14.224Z,992.38
2018-04-20T02:23:14.164Z,992.35
2018-04-20T02:24:14.111Z,992.37
2018-04-20T02:25:14.052Z,992.32
2018-04-20T02:26:13.986Z,992.38
2018-04-20T02:27:13.927Z,992.36
2018-04-20T02:28:13.867Z,992.35
2018-04-20T02:29:13.809Z,992.34
2018-04-20T02:30:13.748Z,992.30
2018-04-20T02:31:13.702Z,992.32
2018-04-20T02:32:13.634Z,992.33
2018-04-20T02:33:13.570Z,992.34
2018-04-20T02:34:13.509Z,992.34
2018-04-20T02:35:13.451Z,992.32
2018-04-20T02:36:13.457Z,992.31
2018-04-20T02:37:13.333Z,992.33
2018-04-20T02:38:13.271Z,992.37
2018-04-20T02:39:13.218Z,992.35
2018-04-20T02:40:13.155Z,992.29
2018-04-20T02:41:13.099Z,992.27
2018-04-20T02:42:13.033Z,992.33
2018-04-20T02:43:12.979Z,992.27
2018-04-20T02:44:12.914Z,992.27
2018-04-20T02:45:12.867Z,992.26
2018-04-20T02:46:12.795Z,992.25
2018-04-20T02:47:12.735Z,992.25
2018-04-20T02:48:12.675Z,992.29
2018-04-20T02:49:12.622Z,992.27
2018-04-20T02:50:12.561Z,992.26
2018-04-20T02:51:12.495Z,992.23
2018-04-20T02:52:12.437Z,992.22
2018-04-20T02:53:12.387Z,992.20
2018-04-20T02:54:12.318Z,992.24
2018-04-20T02:55:12.257Z,992.18
2018-04-20T02:56:12.199Z,992.21
2018-04-20T02:57:12.138Z,992.17
2018-04-20T02:58:12.086Z,992.16
2018-04-20T02:59:12.020Z,992.15
2018-04-20T03:00:11.959Z,992.13
2018-04-20T03:01:11.904Z,992.19
2018-04-20T03:02:11.837Z,992.17
2018-04-20T03:03:11.783Z,992.14
2018-04-20T03:04:11.723Z,992.17
2018-04-20T03:05:11.658Z,992.13
2018-04-20T03:06:11.597Z,992.17
2018-04-20T03:07:11.536Z,992.16
2018-04-20T03:08:11.479Z,992.17
2018-04-20T03:09:11.417Z,992.19
2018-04-20T03:10:11.356Z,992.19
2018-04-20T03:11:11.307Z,992.17
2018-04-20T03:12:11.239Z,992.13
2018-04-20T03:13:11.176Z,992.18
2018-04-20T03:14:11.116Z,992.14
2018-04-20T03:15:11.058Z,992.22
2018-04-20T03:16:10.995Z,992.13
2018-04-20T03:17:10.936Z,992.09
2018-04-20T03:18:10.875Z,992.15
2018-04-20T03:19:10.818Z,992.10
2018-04-20T03:20:10.758Z,992.11
2018-04-20T03:21:10.695Z,992.11
2018-04-20T03:22:10.643Z,992.06
2018-04-20T03:23:10.574Z,992.13
2018-04-20T03:24:10.515Z,992.08
2018-04-20T03:25:10.454Z,992.13
2018-04-20T03:26:10.392Z,992.10
2018-04-20T03:27:10.332Z,992.09
2018-04-20T03:28:10.273Z,992.08
2018-04-20T03:29:10.213Z,992.06
2018-04-20T03:30:10.153Z,992.07
2018-04-20T03:31:10.093Z,992.06
2018-04-20T03:32:10.032Z,992.12
2018-04-20T03:33:09.977Z,992.13
2018-04-20T03:34:09.912Z,992.12
2018-04-20T03:35:09.848Z,992.11
2018-04-20T03:36:09.789Z,992.12
2018-04-20T03:37:09.737Z,992.06
2018-04-20T03:38:09.668Z,992.11
2018-04-20T03:39:09.606Z,992.12
2018-04-20T03:40:09.546Z,992.13
2018-04-20T03:41:09.492Z,992.12
2018-04-20T03:42:09.427Z,992.12
2018-04-20T03:43:09.366Z,992.09
2018-04-20T03:44:09.305Z,992.08
2018-04-20T03:45:09.247Z,992.07
2018-04-20T03:46:09.184Z,992.06
2018-04-20T03:47:09.126Z,992.08
2018-04-20T03:48:09.064Z,992.12
2018-04-20T03:49:09.007Z,992.10
2018-04-20T03:50:08.946Z,992.11
2018-04-20T03:51:08.886Z,992.13
2018-04-20T03:52:08.821Z,992.14
2018-04-20T03:53:08.758Z,992.11
2018-04-20T03:54:08.698Z,992.10
2018-04-20T03:55:08.637Z,992.14
2018-04-20T03:56:08.577Z,992.17
2018-04-20T03:57:08.518Z,992.14
2018-04-20T03:58:08.457Z,992.13
2018-04-20T03:59:08.398Z,992.08
2018-04-20T04:00:08.336Z,992.12
2018-04-20T04:01:08.277Z,992.12
2018-04-20T04:02:08.218Z,992.14
2018-04-20T04:03:08.155Z,992.15
2018-04-20T04:04:08.098Z,992.14
2018-04-20T04:05:08.036Z,992.14
2018-04-20T04:06:07.974Z,992.15
2018-04-20T04:07:07.913Z,992.13
2018-04-20T04:08:07.860Z,992.07
2018-04-20T04:09:07.796Z,992.20
2018-04-20T04:10:07.733Z,992.18
2018-04-20T04:11:07.672Z,992.15
2018-04-20T04:12:07.612Z,992.19
2018-04-20T04:13:07.557Z,992.19
2018-04-20T04:14:07.497Z,992.19
2018-04-20T04:15:07.431Z,992.17
2018-04-20T04:16:07.373Z,992.14
2018-04-20T04:17:07.310Z,992.17
2018-04-20T04:18:07.251Z,992.16
2018-04-20T04:19:07.190Z,992.18
2018-04-20T04:20:07.128Z,992.22
2018-04-20T04:21:07.072Z,992.15
2018-04-20T04:22:07.009Z,992.14
2018-04-20T04:23:07.017Z,992.14
2018-04-20T04:24:06.885Z,992.18
2018-04-20T04:25:06.827Z,992.17
2018-04-20T04:26:06.764Z,992.15
2018-04-20T04:27:06.703Z,992.16
2018-04-20T04:28:06.643Z,992.20
2018-04-20T04:29:06.583Z,992.17
2018-04-20T04:30:06.526Z,992.14
2018-04-20T04:31:06.463Z,992.17
2018-04-20T04:32:06.400Z,992.19
2018-04-20T04:33:06.340Z,992.18
2018-04-20T04:34:06.287Z,992.19
2018-04-20T04:35:06.330Z,992.21
2018-04-20T04:36:06.158Z,992.17
2018-04-20T04:37:06.099Z,992.18
2018-04-20T04:38:06.038Z,992.21
2018-04-20T04:39:05.976Z,992.21
2018-04-20T04:40:05.914Z,992.16
2018-04-20T04:41:05.853Z,992.17
2018-04-20T04:42:05.792Z,992.16
2018-04-20T04:43:05.730Z,992.17
2018-04-20T04:44:05.671Z,992.18
2018-04-20T04:45:05.613Z,992.15
2018-04-20T04:46:05.554Z,992.14
2018-04-20T04:47:05.488Z,992.17
2018-04-20T04:48:05.489Z,992.19
2018-04-20T04:49:05.369Z,992.22
2018-04-20T04:50:05.304Z,992.23
2018-04-20T04:51:05.243Z,992.26
2018-04-20T04:52:05.184Z,992.21
2018-04-20T04:53:05.122Z,992.27
2018-04-20T04:54:05.060Z,992.21
2018-04-20T04:55:04.999Z,992.25
2018-04-20T04:56:04.939Z,992.27
2018-04-20T04:57:04.876Z,992.25
2018-04-20T04:58:04.819Z,992.26
2018-04-20T04:59:04.755Z,992.28
2018-04-20T05:00:04.693Z,992.27
2018-04-20T05:01:04.633Z,992.26
2018-04-20T05:02:04.571Z,992.24
2018-04-20T05:03:04.513Z,992.28
2018-04-20T05:04:04.450Z,992.34
2018-04-20T05:05:04.391Z,992.33
2018-04-20T05:06:04.329Z,992.32
2018-04-20T05:07:04.268Z,992.36
2018-04-20T05:08:04.207Z,992.34
2018-04-20T05:09:04.181Z,992.34
2018-04-20T05:10:04.087Z,992.36
2018-04-20T05:11:04.029Z,992.32
2018-04-20T05:12:03.965Z,992.34
2018-04-20T05:13:03.903Z,992.39
2018-04-20T05:14:03.843Z,992.38
2018-04-20T05:15:03.783Z,992.37
2018-04-20T05:16:03.724Z,992.34
2018-04-20T05:17:03.666Z,992.30
2018-04-20T05:18:03.601Z,992.30
2018-04-20T05:19:03.546Z,992.28
2018-04-20T05:20:03.484Z,992.31
2018-04-20T05:21:03.421Z,992.30
2018-04-20T05:22:03.358Z,992.34
2018-04-20T05:23:03.299Z,992.32
2018-04-20T05:24:03.238Z,992.33
2018-04-20T05:25:03.181Z,992.34
2018-04-20T05:26:03.117Z,992.37
2018-04-20T05:27:03.058Z,992.35
2018-04-20T05:28:03.003Z,992.38
2018-04-20T05:29:02.938Z,992.40
2018-04-20T05:30:02.875Z,992.38
2018-04-20T05:31:02.821Z,992.42
2018-04-20T05:32:02.762Z,992.40
2018-04-20T05:33:02.696Z,992.44
2018-04-20T05:34:02.640Z,992.46
2018-04-20T05:35:02.574Z,992.37
2018-04-20T05:36:02.516Z,992.40
2018-04-20T05:37:02.455Z,992.39
2018-04-20T05:38:02.395Z,992.40
2018-04-20T05:39:02.335Z,992.39
2018-04-20T05:40:02.277Z,992.40
2018-04-20T05:41:02.215Z,992.38
2018-04-20T05:42:02.155Z,992.40
2018-04-20T05:43:02.096Z,992.39
2018-04-20T05:44:02.035Z,992.39
2018-04-20T05:45:01.978Z,992.36
2018-04-20T05:46:01.914Z,992.37
2018-04-20T05:47:01.856Z,992.37
2018-04-20T05:48:01.796Z,992.36
2018-04-20T05:49:01.737Z,992.35
2018-04-20T05:50:01.681Z,992.35
2018-04-20T05:51:01.621Z,992.38
2018-04-20T05:52:01.563Z,992.37
2018-04-20T05:53:01.497Z,992.42
2018-04-20T05:54:01.439Z,992.39
2018-04-20T05:55:01.377Z,992.40
2018-04-20T05:56:01.317Z,992.40
2018-04-20T05:57:01.268Z,992.36
2018-04-20T05:58:01.199Z,992.40
2018-04-20T05:59:01.148Z,992.42
2018-04-20T06:00:01.080Z,992.45
2018-04-20T06:01:01.020Z,992.41
2018-04-20T06:02:00.960Z,992.45
2018-04-20T06:03:00.900Z,992.37
2018-04-20T06:04:00.843Z,992.42
2018-04-20T06:05:00.782Z,992.43
2018-04-20T06:06:00.729Z,992.40
2018-04-20T06:07:00.719Z,992.41
2018-04-20T06:08:00.613Z,992.39
2018-04-20T06:09:00.545Z,992.41
2018-04-20T06:10:00.484Z,992.42
2018-04-20T06:11:00.425Z,992.37
2018-04-20T06:12:00.373Z,992.38
2018-04-20T06:13:00.308Z,992.41
2018-04-20T06:14:00.251Z,992.37
2018-04-20T06:15:00.269Z,992.43
2018-04-20T06:16:00.135Z,992.43
2018-04-20T06:17:00.071Z,992.39
2018-04-20T06:18:00.011Z,992.42
2018-04-20T06:18:59.959Z,992.42
2018-04-20T06:19:59.893Z,992.41
2018-04-20T06:20:59.835Z,992.43
2018-04-20T06:21:59.777Z,992.40
2018-04-20T06:22:59.716Z,992.39
2018-04-20T06:23:59.673Z,992.40
2018-04-20T06:24:59.606Z,992.42
2018-04-20T06:25:59.545Z,992.46
2018-04-20T06:26:59.485Z,992.44
2018-04-20T06:27:59.425Z,992.37
2018-04-20T06:28:59.367Z,992.39
2018-04-20T06:29:59.308Z,992.40
2018-04-20T06:30:59.250Z,992.41
2018-04-20T06:31:59.193Z,992.39
2018-04-20T06:32:59.135Z,992.42
2018-04-20T06:33:59.076Z,992.43
2018-04-20T06:34:59.026Z,992.42
2018-04-20T06:35:58.961Z,992.36
2018-04-20T06:36:58.903Z,992.35
2018-04-20T06:37:58.844Z,992.33
2018-04-20T06:38:58.789Z,992.30
2018-04-20T06:39:58.729Z,992.29
2018-04-20T06:40:58.673Z,992.30
2018-04-20T06:41:58.619Z,992.25
2018-04-20T06:42:58.557Z,992.26
2018-04-20T06:43:58.500Z,992.26
2018-04-20T06:44:58.443Z,992.35
2018-04-20T06:45:58.386Z,992.35
2018-04-20T06:46:58.328Z,992.27
2018-04-20T06:47:58.274Z,992.27
2018-04-20T06:48:58.214Z,992.27
2018-04-20T06:49:58.158Z,992.25
2018-04-20T06:50:58.104Z,992.23
2018-04-20T06:51:58.049Z,992.25
2018-04-20T06:52:57.991Z,992.27
2018-04-20T06:53:57.930Z,992.23
2018-04-20T06:54:57.875Z,992.22
2018-04-20T06:55:57.818Z,992.20
2018-04-20T06:56:57.762Z,992.20
2018-04-20T06:57:57.707Z,992.21
2018-04-20T06:58:57.650Z,992.25
2018-04-20T06:59:57.593Z,992.24
2018-04-20T07:00:57.536Z,992.26
2018-04-20T07:01:57.482Z,992.22
2018-04-20T07:02:57.426Z,992.24
2018-04-20T07:03:57.368Z,992.22
2018-04-20T07:04:57.319Z,992.21
2018-04-20T07:05:57.256Z,992.20
2018-04-20T07:06:57.201Z,992.19
2018-04-20T07:07:57.145Z,992.18
2018-04-20T07:08:57.089Z,992.15
2018-04-20T07:09:57.032Z,992.17
2018-04-20T07:10:56.976Z,992.14
2018-04-20T07:11:56.972Z,992.09
2018-04-20T07:12:56.867Z,992.10
2018-04-20T07:13:56.809Z,992.07
2018-04-20T07:14:56.760Z,992.07
2018-04-20T07:15:56.699Z,992.02
2018-04-20T07:16:56.645Z,992.04
2018-04-20T07:17:56.591Z,992.02
2018-04-20T07:18:56.536Z,991.97
2018-04-20T07:19:56.484Z,991.99
2018-04-20T07:20:56.430Z,991.99
2018-04-20T07:21:56.368Z,992.01
2018-04-20T07:22:56.313Z,992.04
2018-04-20T07:23:56.259Z,992.02
2018-04-20T07:24:56.207Z,992.00
2018-04-20T07:25:56.150Z,992.00
2018-04-20T07:26:56.095Z,992.00
2018-04-20T07:27:56.041Z,991.99
2018-04-20T07:28:55.992Z,991.99
2018-04-20T07:29:55.930Z,992.02
2018-04-20T07:30:55.878Z,991.99
2018-04-20T07:31:55.829Z,991.97
2018-04-20T07:32:55.774Z,991.95
2018-04-20T07:33:55.720Z,991.96
2018-04-20T07:34:55.664Z,991.97
2018-04-20T07:35:55.605Z,991.98
2018-04-20T07:36:55.552Z,991.99
2018-04-20T07:37:55.498Z,992.02
2018-04-20T07:38:55.449Z,991.92
2018-04-20T07:39:55.391Z,991.91
2018-04-20T07:40:55.337Z,991.93
2018-04-20T07:41:55.283Z,991.92
2018-04-20T07:42:55.234Z,991.94
2018-04-20T07:43:55.176Z,991.91
2018-04-20T07:44:55.122Z,991.87
2018-04-20T07:45:55.067Z,991.88
2018-04-20T07:46:55.017Z,991.89
2018-04-20T07:47:54.962Z,991.82
2018-04-20T07:48:54.911Z,991.88
2018-04-20T07:49:54.858Z,991.79
2018-04-20T07:50:54.811Z,991.81
2018-04-20T07:51:54.755Z,991.80
2018-04-20T07:52:54.697Z,991.81
2018-04-20T07:53:54.643Z,991.78
2018-04-20T07:54:54.591Z,991.79
2018-04-20T07:55:54.546Z,991.78
2018-04-20T07:56:54.486Z,991.80
2018-04-20T07:57:54.433Z,991.80
2018-04-20T07:58:54.388Z,991.79
2018-04-20T07:59:54.329Z,991.80
2018-04-20T08:00:54.277Z,991.82
2018-04-20T08:01:54.224Z,991.82
2018-04-20T08:02:54.170Z,991.83
2018-04-20T08:03:54.120Z,991.81
2018-04-20T08:04:54.066Z,991.81
2018-04-20T08:05:54.018Z,991.78
2018-04-20T08:06:53.965Z,991.77
2018-04-20T08:07:53.911Z,991.77
2018-04-20T08:08:53.867Z,991.80
2018-04-20T08:09:53.808Z,991.75
2018-04-20T08:10:53.753Z,991.76
2018-04-20T08:11:53.702Z,991.72
2018-04-20T08:12:53.650Z,991.70
2018-04-20T08:13:53.619Z,991.69
2018-04-20T08:14:53.545Z,991.69
2018-04-20T08:15:53.496Z,991.67
2018-04-20T08:16:53.443Z,991.69
2018-04-20T08:17:53.390Z,991.69
2018-04-20T08:18:53.344Z,991.66
2018-04-20T08:19:53.288Z,991.66
2018-04-20T08:20:53.238Z,991.66
2018-04-20T08:21:53.185Z,991.66
2018-04-20T08:22:53.133Z,991.65
2018-04-20T08:23:53.091Z,991.67
2018-04-20T08:24:53.037Z,991.68
2018-04-20T08:25:52.978Z,991.70
2018-04-20T08:26:52.927Z,991.69
2018-04-20T08:27:52.875Z,991.73
2018-04-20T08:28:52.825Z,991.68
2018-04-20T08:29:52.773Z,991.69
2018-04-20T08:30:52.724Z,991.62
2018-04-20T08:31:52.674Z,991.67
2018-04-20T08:32:52.619Z,991.67
2018-04-20T08:33:52.568Z,991.64
2018-04-20T08:34:52.517Z,991.65
2018-04-20T08:35:52.472Z,991.73
2018-04-20T08:36:52.417Z,991.73
2018-04-20T08:37:52.367Z,991.68
2018-04-20T08:38:52.316Z,991.66
2018-04-20T08:39:52.266Z,991.63
2018-04-20T08:40:52.217Z,991.66
2018-04-20T08:41:52.163Z,991.66
2018-04-20T08:42:52.115Z,991.66
2018-04-20T08:43:52.070Z,991.62
2018-04-20T08:44:52.013Z,991.65
2018-04-20T08:45:53.535Z,991.66
2018-04-20T08:46:51.918Z,991.65
2018-04-20T08:47:51.871Z,991.65
2018-04-20T08:48:51.817Z,991.66
2018-04-20T08:49:51.778Z,991.63
2018-04-20T08:50:51.714Z,991.63
2018-04-20T08:51:51.665Z,991.71
2018-04-20T08:52:51.624Z,991.63
2018-04-20T08:53:51.573Z,991.64
2018-04-20T08:54:51.514Z,991.64
2018-04-20T08:55:51.466Z,991.65
2018-04-20T08:56:51.417Z,991.64
2018-04-20T08:57:51.370Z,991.63
2018-04-20T08:58:51.322Z,991.65
2018-04-20T08:59:51.273Z,991.63
2018-04-20T09:00:51.219Z,991.60
2018-04-20T09:01:51.169Z,991.56
2018-04-20T09:02:51.120Z,991.56
2018-04-20T09:03:51.071Z,991.55
2018-04-20T09:04:51.022Z,991.53
2018-04-20T09:05:50.976Z,991.53
2018-04-20T09:06:50.926Z,991.50
2018-04-20T09:07:50.875Z,991.50
2018-04-20T09:08:50.829Z,991.53
2018-04-20T09:09:50.778Z,991.56
2018-04-20T09:10:50.728Z,991.51
2018-04-20T09:11:50.680Z,991.48
2018-04-20T09:12:50.630Z,991.51
2018-04-20T09:13:50.581Z,991.51
2018-04-20T09:14:50.533Z,991.48
2018-04-20T09:15:50.486Z,991.50
2018-04-20T09:16:50.438Z,991.48
2018-04-20T09:17:50.415Z,991.51
2018-04-20T09:18:50.338Z,991.51
2018-04-20T09:19:50.289Z,991.46
2018-04-20T09:20:50.242Z,991.49
2018-04-20T09:21:50.192Z,991.43
2018-04-20T09:22:50.145Z,991.46
2018-04-20T09:23:50.096Z,991.42
2018-04-20T09:24:50.049Z,991.43
2018-04-20T09:25:50.004Z,991.40
2018-04-20T09:26:49.951Z,991.36
2018-04-20T09:27:49.903Z,991.34
2018-04-20T09:28:49.856Z,991.34
2018-04-20T09:29:49.807Z,991.32
2018-04-20T09:30:49.759Z,991.27
2018-04-20T09:31:49.711Z,991.28
2018-04-20T09:32:49.662Z,991.27
2018-04-20T09:33:49.615Z,991.22
2018-04-20T09:34:49.568Z,991.24
2018-04-20T09:35:49.524Z,991.26
2018-04-20T09:36:49.471Z,991.16
2018-04-20T09:37:49.423Z,991.15
2018-04-20T09:38:49.376Z,991.15
2018-04-20T09:39:49.348Z,991.12
2018-04-20T09:40:49.294Z,991.09
2018-04-20T09:41:49.234Z,991.14
2018-04-20T09:42:49.186Z,991.13
2018-04-20T09:43:49.138Z,991.15
2018-04-20T09:44:49.090Z,991.15
2018-04-20T09:45:49.043Z,991.08
2018-04-20T09:46:48.996Z,991.05
2018-04-20T09:47:48.947Z,991.06
2018-04-20T09:48:48.901Z,991.09
2018-04-20T09:49:48.852Z,991.03
2018-04-20T09:50:48.805Z,991.06
2018-04-20T09:51:48.759Z,991.08
2018-04-20T09:52:48.712Z,991.10
2018-04-20T09:53:48.662Z,991.07
2018-04-20T09:54:48.617Z,991.10
2018-04-20T09:55:48.568Z,991.03
2018-04-20T09:56:48.523Z,991.03
2018-04-20T09:57:48.474Z,991.00
2018-04-20T09:58:48.428Z,991.10
2018-04-20T09:59:48.379Z,991.09
2018-04-20T10:00:48.337Z,991.06
2018-04-20T10:01:48.285Z,991.04
2018-04-20T10:02:48.238Z,991.08
2018-04-20T10:03:48.192Z,991.03
2018-04-20T10:04:48.145Z,991.02
2018-04-20T10:05:48.097Z,991.00
2018-04-20T10:06:48.055Z,991.00
2018-04-20T10:07:48.031Z,991.01
2018-04-20T10:08:47.959Z,991.02
2018-04-20T10:09:47.914Z,991.05
2018-04-20T10:10:47.866Z,991.05
2018-04-20T10:11:47.818Z,991.03
2018-04-20T10:12:47.831Z,990.99
2018-04-20T10:13:47.724Z,990.97
2018-04-20T10:14:47.679Z,991.02
2018-04-20T10:15:47.641Z,991.02
2018-04-20T10:16:47.591Z,991.01
2018-04-20T10:17:47.539Z,990.99
2018-04-20T10:18:47.496Z,991.02
2018-04-20T10:19:47.447Z,991.01
2018-04-20T10:20:47.401Z,990.95
2018-04-20T10:21:47.355Z,990.97
2018-04-20T10:22:47.308Z,990.93
2018-04-20T10:23:47.264Z,990.92
2018-04-20T10:24:47.216Z,990.91
2018-04-20T10:25:47.170Z,990.91
2018-04-20T10:26:47.128Z,990.88
2018-04-20T10:27:47.081Z,990.90
2018-04-20T10:28:47.031Z,990.91
2018-04-20T10:29:46.983Z,990.92
2018-04-20T10:30:46.938Z,990.88
2018-04-20T10:31:46.899Z,990.88
2018-04-20T10:32:46.854Z,990.87
2018-04-20T10:33:46.800Z,990.81
2018-04-20T10:34:46.758Z,990.83
2018-04-20T10:35:46.718Z,990.83
2018-04-20T10:36:46.660Z,990.83
2018-04-20T10:37:46.617Z,990.81
2018-04-20T10:38:46.569Z,990.80
2018-04-20T10:39:46.523Z,990.83
2018-04-20T10:40:46.474Z,990.77
2018-04-20T10:41:46.428Z,990.77
2018-04-20T10:42:46.380Z,990.77
2018-04-20T10:43:46.334Z,990.76
2018-04-20T10:44:46.289Z,990.71
2018-04-20T10:45:46.242Z,990.71
2018-04-20T10:46:46.197Z,990.73
2018-04-20T10:47:46.151Z,990.73
2018-04-20T10:48:46.105Z,990.70
2018-04-20T10:49:46.057Z,990.72
2018-04-20T10:50:46.009Z,990.69
2018-04-20T10:51:45.963Z,990.70
2018-04-20T10:52:45.921Z,990.72
2018-04-20T10:53:45.884Z,990.72
2018-04-20T10:54:45.822Z,990.74
2018-04-20T10:55:45.784Z,990.71
2018-04-20T10:56:45.730Z,990.73
2018-04-20T12:13:33.222Z,989.97
2018-04-20T12:14:32.396Z,989.90
2018-04-20T12:16:25.688Z,989.87
2018-04-20T12:17:25.631Z,989.88
2018-04-20T12:18:25.581Z,989.85
2018-04-20T12:19:25.545Z,989.87
2018-04-20T12:20:25.483Z,989.83
2018-04-20T12:21:25.436Z,989.83
2018-04-20T12:22:25.386Z,989.82
2018-04-20T12:23:25.339Z,989.82
2018-04-20T12:24:25.291Z,989.80
2018-04-20T12:25:25.246Z,989.81
2018-04-20T12:26:25.199Z,989.76
2018-04-20T12:27:25.219Z,989.79
2018-04-20T12:28:25.105Z,989.70
2018-04-20T12:29:25.072Z,989.73
2018-04-20T12:30:25.015Z,989.69
2018-04-20T12:31:24.974Z,989.67
2018-04-20T12:32:24.923Z,989.70
2018-04-20T12:33:24.878Z,989.71
2018-04-20T12:34:24.835Z,989.70
2018-04-20T12:35:24.796Z,989.67
2018-04-20T12:36:24.751Z,989.64
2018-04-20T12:37:24.707Z,989.63
2018-04-20T12:38:24.655Z,989.65
2018-04-20T12:39:24.611Z,989.60
2018-04-20T12:40:24.566Z,989.62
2018-04-20T12:41:24.529Z,989.61
2018-04-20T12:42:24.477Z,989.63
2018-04-20T12:43:24.432Z,989.57
2018-04-20T12:44:24.449Z,989.54
2018-04-20T12:45:24.349Z,989.55
2018-04-20T12:46:24.301Z,989.56
2018-04-20T12:47:24.259Z,989.53
2018-04-20T12:48:24.217Z,989.54
2018-04-20T12:49:24.168Z,989.53
2018-04-20T12:50:24.123Z,989.59
2018-04-20T12:51:24.148Z,989.48
2018-04-20T12:52:24.035Z,989.52
2018-04-20T12:53:23.992Z,989.51
2018-04-20T12:54:23.956Z,989.47
2018-04-20T12:55:23.913Z,989.41
2018-04-20T12:56:23.978Z,989.42
2018-04-20T12:57:23.874Z,989.39
2018-04-20T12:58:23.770Z,989.46
2018-04-20T12:59:23.729Z,989.42
2018-04-20T13:00:23.683Z,989.39
2018-04-20T13:01:23.639Z,989.40
2018-04-20T13:02:23.599Z,989.40
2018-04-20T13:03:23.551Z,989.41
2018-04-20T13:04:23.509Z,989.39
2018-04-20T13:05:23.463Z,989.35
2018-04-20T13:06:23.417Z,989.37
2018-04-20T13:07:23.376Z,989.33
2018-04-20T13:08:23.329Z,989.30
2018-04-20T13:09:23.285Z,989.28
2018-04-20T13:10:23.241Z,989.31
2018-04-20T13:11:23.197Z,989.25
2018-04-20T13:12:23.152Z,989.27
2018-04-20T13:13:23.111Z,989.22
2018-04-20T13:14:23.067Z,989.27
2018-04-20T13:15:23.022Z,989.24
2018-04-20T13:16:22.980Z,989.22
2018-04-20T13:17:22.933Z,989.25
2018-04-20T13:18:22.913Z,989.21
2018-04-20T13:19:22.847Z,989.19
2018-04-20T13:20:22.800Z,989.13
2018-04-20T13:21:22.757Z,989.13
2018-04-20T13:22:22.713Z,989.14
2018-04-20T13:23:22.670Z,989.13
2018-04-20T13:24:22.625Z,989.03
2018-04-20T13:25:22.590Z,989.06
2018-04-20T13:26:22.538Z,989.02
2018-04-20T13:27:22.495Z,989.02
2018-04-20T13:28:22.451Z,988.98
2018-04-20T13:29:22.407Z,988.99
2018-04-20T13:30:22.364Z,988.98
2018-04-20T13:31:22.365Z,989.01
2018-04-20T13:32:22.275Z,989.01
2018-04-20T13:33:22.232Z,988.97
2018-04-20T13:34:22.187Z,988.97
2018-04-20T13:35:22.144Z,988.95
2018-04-20T13:36:22.100Z,988.97
2018-04-20T13:37:22.056Z,988.94
2018-04-20T13:38:22.012Z,988.91
2018-04-20T13:39:21.969Z,988.93
2018-04-20T13:40:21.926Z,988.94
2018-04-20T13:41:21.880Z,988.92
2018-04-20T13:42:21.837Z,988.87
2018-04-20T13:43:21.830Z,988.86
2018-04-20T13:44:21.747Z,988.85